createdAt,value
2016-12-28T00:00:28.280Z,984.82
2016-12-28T00:00:58.321Z,984.81
2016-12-28T00:01:28.360Z,984.83
2016-12-28T00:01:58.401Z,984.84
2016-12-28T00:02:28.438Z,984.88
2016-12-28T00:02:58.478Z,984.81
2016-12-28T00:03:28.518Z,984.83
2016-12-28T00:03:58.557Z,984.81
2016-12-28T00:04:28.598Z,984.8
2016-12-28T00:04:58.636Z,984.77
2016-12-28T00:05:28.676Z,984.75
2016-12-28T00:05:58.714Z,984.75
2016-12-28T00:06:28.755Z,984.75
2016-12-28T00:06:58.795Z,984.77
2016-12-28T00:07:28.835Z,984.68
2016-12-28T00:07:58.873Z,984.71
2016-12-28T00:08:28.915Z,984.71
2016-12-28T00:08:58.954Z,984.74
2016-12-28T00:09:28.994Z,984.7
2016-12-28T00:09:59.032Z,984.71
2016-12-28T00:10:29.070Z,984.76
2016-12-28T00:10:59.110Z,984.69
2016-12-28T00:11:29.150Z,984.72
2016-12-28T00:11:59.187Z,984.72
2016-12-28T00:12:29.229Z,984.71
2016-12-28T00:12:59.268Z,984.67
2016-12-28T00:13:29.309Z,984.69
2016-12-28T00:13:59.347Z,984.67
2016-12-28T00:14:29.386Z,984.66
2016-12-28T00:14:59.429Z,984.63
2016-12-28T00:15:29.467Z,984.61
2016-12-28T00:15:59.505Z,984.62
2016-12-28T00:16:29.542Z,984.62
2016-12-28T00:16:59.584Z,984.57
2016-12-28T00:17:29.623Z,984.58
2016-12-28T00:17:59.663Z,984.57
2016-12-28T00:18:29.702Z,984.6
2016-12-28T00:18:59.741Z,984.58
2016-12-28T00:19:29.781Z,984.57
2016-12-28T00:19:59.819Z,984.51
2016-12-28T00:20:29.860Z,984.61
2016-12-28T00:20:59.899Z,984.59
2016-12-28T00:21:29.938Z,984.56
2016-12-28T00:21:59.977Z,984.55
2016-12-28T00:22:30.019Z,984.54
2016-12-28T00:23:00.053Z,984.53
2016-12-28T00:23:30.096Z,984.53
2016-12-28T00:24:00.136Z,984.6
2016-12-28T00:24:30.183Z,984.53
2016-12-28T00:25:00.215Z,984.54
2016-12-28T00:25:30.252Z,984.56
2016-12-28T00:26:00.293Z,984.51
2016-12-28T00:26:30.333Z,984.54
2016-12-28T00:27:00.373Z,984.51
2016-12-28T00:27:30.413Z,984.53
2016-12-28T00:28:00.459Z,984.5
2016-12-28T00:28:30.490Z,984.52
2016-12-28T00:29:00.531Z,984.54
2016-12-28T00:29:30.572Z,984.56
2016-12-28T00:30:00.612Z,984.53
2016-12-28T00:30:30.651Z,984.61
2016-12-28T00:31:00.690Z,984.6
2016-12-28T00:31:30.729Z,984.59
2016-12-28T00:32:00.769Z,984.57
2016-12-28T00:32:30.809Z,984.54
2016-12-28T00:33:00.848Z,984.61
2016-12-28T00:33:30.885Z,984.59
2016-12-28T00:34:00.926Z,984.6
2016-12-28T00:34:30.964Z,984.58
2016-12-28T00:35:01.004Z,984.58
2016-12-28T00:35:31.043Z,984.59
2016-12-28T00:36:01.085Z,984.55
2016-12-28T00:36:31.123Z,984.53
2016-12-28T00:37:01.165Z,984.61
2016-12-28T00:37:31.202Z,984.57
2016-12-28T00:38:01.244Z,984.55
2016-12-28T00:38:31.281Z,984.6
2016-12-28T00:39:01.319Z,984.61
2016-12-28T00:39:31.360Z,984.48
2016-12-28T00:40:01.400Z,984.61
2016-12-28T00:40:31.438Z,984.62
2016-12-28T00:41:01.481Z,984.59
2016-12-28T00:41:31.518Z,984.58
2016-12-28T00:42:01.556Z,984.62
2016-12-28T00:42:31.595Z,984.6
2016-12-28T00:43:01.635Z,984.55
2016-12-28T00:43:31.674Z,984.57
2016-12-28T00:44:01.715Z,984.6
2016-12-28T00:44:31.756Z,984.56
2016-12-28T00:45:01.792Z,984.55
2016-12-28T00:45:31.832Z,984.58
2016-12-28T00:46:02.123Z,984.58
2016-12-28T00:46:31.913Z,984.57
2016-12-28T00:47:01.954Z,984.64
2016-12-28T00:47:31.990Z,984.58
2016-12-28T00:48:02.331Z,984.62
2016-12-28T00:48:32.071Z,984.63
2016-12-28T00:49:02.110Z,984.6
2016-12-28T00:49:32.147Z,984.59
2016-12-28T00:50:02.189Z,984.64
2016-12-28T00:50:32.227Z,984.59
2016-12-28T00:51:02.618Z,984.59
2016-12-28T00:51:32.307Z,984.59
2016-12-28T00:52:02.346Z,984.59
2016-12-28T00:52:32.387Z,984.6
2016-12-28T00:53:02.427Z,984.56
2016-12-28T00:53:32.465Z,984.58
2016-12-28T00:54:02.604Z,984.52
2016-12-28T00:54:32.544Z,984.54
2016-12-28T00:55:02.584Z,984.54
2016-12-28T00:55:32.621Z,984.51
2016-12-28T00:56:02.662Z,984.56
2016-12-28T00:56:32.701Z,984.51
2016-12-28T00:57:02.742Z,984.56
2016-12-28T00:57:32.780Z,984.57
2016-12-28T00:58:02.821Z,984.57
2016-12-28T00:58:32.859Z,984.57
2016-12-28T00:59:02.895Z,984.59
2016-12-28T00:59:32.938Z,984.54
2016-12-28T01:00:02.984Z,984.61
2016-12-28T01:00:33.016Z,984.53
2016-12-28T01:01:03.057Z,984.61
2016-12-28T01:01:33.096Z,984.64
2016-12-28T01:02:03.133Z,984.68
2016-12-28T01:02:33.173Z,984.64
2016-12-28T01:03:03.214Z,984.65
2016-12-28T01:03:33.253Z,984.66
2016-12-28T01:04:03.294Z,984.69
2016-12-28T01:04:33.332Z,984.65
2016-12-28T01:05:03.373Z,984.64
2016-12-28T01:05:33.409Z,984.69
2016-12-28T01:06:03.451Z,984.65
2016-12-28T01:06:33.490Z,984.65
2016-12-28T01:07:03.535Z,984.6
2016-12-28T01:07:33.570Z,984.65
2016-12-28T01:08:03.607Z,984.66
2016-12-28T01:08:33.648Z,984.69
2016-12-28T01:09:03.685Z,984.7
2016-12-28T01:09:33.726Z,984.69
2016-12-28T01:10:03.765Z,984.7
2016-12-28T01:10:33.805Z,984.69
2016-12-28T01:11:03.843Z,984.71
2016-12-28T01:11:33.884Z,984.7
2016-12-28T01:12:03.924Z,984.69
2016-12-28T01:12:33.963Z,984.79
2016-12-28T01:13:04.004Z,984.75
2016-12-28T01:13:34.042Z,984.75
2016-12-28T01:14:04.081Z,984.78
2016-12-28T01:14:34.121Z,984.78
2016-12-28T01:15:04.159Z,984.81
2016-12-28T01:15:34.201Z,984.78
2016-12-28T01:16:04.240Z,984.81
2016-12-28T01:16:34.279Z,984.82
2016-12-28T01:17:04.320Z,984.86
2016-12-28T01:17:34.358Z,984.84
2016-12-28T01:18:04.397Z,984.95
2016-12-28T01:18:34.436Z,984.89
2016-12-28T01:19:04.476Z,984.9
2016-12-28T01:19:34.515Z,984.92
2016-12-28T01:20:04.555Z,984.95
2016-12-28T01:20:34.594Z,984.96
2016-12-28T01:21:04.634Z,984.92
2016-12-28T01:21:34.674Z,984.93
2016-12-28T01:22:04.714Z,984.92
2016-12-28T01:22:34.750Z,984.92
2016-12-28T01:23:04.792Z,984.96
2016-12-28T01:23:34.832Z,984.95
2016-12-28T01:24:04.869Z,984.94
2016-12-28T01:24:34.911Z,984.93
2016-12-28T01:25:04.952Z,984.96
2016-12-28T01:25:34.989Z,984.94
2016-12-28T01:26:05.029Z,984.96
2016-12-28T01:26:35.069Z,984.97
2016-12-28T01:27:05.108Z,984.98
2016-12-28T01:27:35.147Z,985.03
2016-12-28T01:28:05.185Z,985.02
2016-12-28T01:28:35.225Z,985.03
2016-12-28T01:29:05.262Z,985.04
2016-12-28T01:29:35.305Z,985.07
2016-12-28T01:30:05.345Z,985.1
2016-12-28T01:30:35.381Z,985.12
2016-12-28T01:31:05.423Z,985.09
2016-12-28T01:31:35.464Z,985.1
2016-12-28T01:32:05.504Z,985.11
2016-12-28T01:32:35.542Z,985.11
2016-12-28T01:33:05.580Z,985.07
2016-12-28T01:33:35.620Z,985.1
2016-12-28T01:34:05.661Z,985.14
2016-12-28T01:34:35.700Z,985.11
2016-12-28T01:35:05.739Z,985.12
2016-12-28T01:35:35.780Z,985.17
2016-12-28T01:36:05.817Z,985.17
2016-12-28T01:36:35.857Z,985.19
2016-12-28T01:37:05.898Z,985.2
2016-12-28T01:37:35.936Z,985.27
2016-12-28T01:38:05.975Z,985.26
2016-12-28T01:38:36.014Z,985.27
2016-12-28T01:39:06.055Z,985.25
2016-12-28T01:39:36.094Z,985.29
2016-12-28T01:40:06.133Z,985.3
2016-12-28T01:40:36.173Z,985.25
2016-12-28T01:41:06.212Z,985.31
2016-12-28T01:41:36.252Z,985.3
2016-12-28T01:42:06.291Z,985.3
2016-12-28T01:42:36.331Z,985.28
2016-12-28T01:43:06.368Z,985.29
2016-12-28T01:43:36.408Z,985.3
2016-12-28T01:44:06.450Z,985.26
2016-12-28T01:44:36.489Z,985.26
2016-12-28T01:45:06.528Z,985.23
2016-12-28T01:45:36.569Z,985.28
2016-12-28T01:46:06.607Z,985.26
2016-12-28T01:46:36.650Z,985.26
2016-12-28T01:47:06.687Z,985.26
2016-12-28T01:47:36.724Z,985.26
2016-12-28T01:48:06.765Z,985.27
2016-12-28T01:48:36.804Z,985.28
2016-12-28T01:49:06.844Z,985.26
2016-12-28T01:49:36.883Z,985.29
2016-12-28T01:50:06.921Z,985.34
2016-12-28T01:50:36.962Z,985.25
2016-12-28T01:51:07.002Z,985.3
2016-12-28T01:51:37.044Z,985.31
2016-12-28T01:52:07.080Z,985.35
2016-12-28T01:52:37.123Z,985.38
2016-12-28T01:53:07.159Z,985.4
2016-12-28T01:53:37.198Z,985.36
2016-12-28T01:54:07.242Z,985.38
2016-12-28T01:54:37.278Z,985.39
2016-12-28T01:55:07.319Z,985.33
2016-12-28T01:55:37.355Z,985.3
2016-12-28T01:56:07.397Z,985.21
2016-12-28T01:56:37.434Z,985.15
2016-12-28T01:57:07.474Z,985.13
2016-12-28T01:57:37.519Z,985.08
2016-12-28T01:58:07.554Z,984.99
2016-12-28T01:58:37.593Z,985.01
2016-12-28T01:59:07.632Z,984.96
2016-12-28T01:59:37.673Z,984.92
2016-12-28T02:00:07.713Z,984.92
2016-12-28T02:00:37.751Z,984.89
2016-12-28T02:01:07.790Z,984.88
2016-12-28T02:01:37.830Z,984.93
2016-12-28T02:02:07.870Z,984.91
2016-12-28T02:02:37.909Z,984.89
2016-12-28T02:03:07.950Z,984.82
2016-12-28T02:03:37.988Z,984.89
2016-12-28T02:04:08.038Z,984.93
2016-12-28T02:04:38.069Z,984.86
2016-12-28T02:05:08.104Z,984.91
2016-12-28T02:05:38.146Z,984.96
2016-12-28T02:06:08.184Z,984.96
2016-12-28T02:06:38.223Z,985
2016-12-28T02:07:08.262Z,984.95
2016-12-28T02:07:38.303Z,984.96
2016-12-28T02:08:08.340Z,984.99
2016-12-28T02:08:38.382Z,984.99
2016-12-28T02:09:08.426Z,985.02
2016-12-28T02:09:38.460Z,985.01
2016-12-28T02:10:08.500Z,985.02
2016-12-28T02:10:38.539Z,984.97
2016-12-28T02:11:08.579Z,984.98
2016-12-28T02:11:38.619Z,984.99
2016-12-28T02:12:08.660Z,984.97
2016-12-28T02:12:38.697Z,985.03
2016-12-28T02:13:08.737Z,985.02
2016-12-28T02:13:38.775Z,984.97
2016-12-28T02:14:08.815Z,984.98
2016-12-28T02:14:38.855Z,984.99
2016-12-28T02:15:08.894Z,984.97
2016-12-28T02:15:38.931Z,985
2016-12-28T02:16:08.972Z,984.98
2016-12-28T02:16:39.013Z,985.03
2016-12-28T02:17:09.052Z,984.98
2016-12-28T02:17:39.091Z,985
2016-12-28T02:18:09.130Z,985.08
2016-12-28T02:18:39.169Z,985.04
2016-12-28T02:19:09.212Z,984.99
2016-12-28T02:19:39.246Z,985.03
2016-12-28T02:20:09.288Z,985.06
2016-12-28T02:20:39.327Z,985.09
2016-12-28T02:21:09.366Z,985.09
2016-12-28T02:21:39.407Z,985.1
2016-12-28T02:22:09.747Z,985.09
2016-12-28T02:22:39.485Z,985.16
2016-12-28T02:23:09.522Z,985.12
2016-12-28T02:23:39.565Z,985.14
2016-12-28T02:24:09.603Z,985.15
2016-12-28T02:24:39.642Z,985.17
2016-12-28T02:25:09.682Z,985.16
2016-12-28T02:25:39.723Z,985.19
2016-12-28T02:26:09.759Z,985.21
2016-12-28T02:26:39.801Z,985.22
2016-12-28T02:27:09.840Z,985.22
2016-12-28T02:27:39.881Z,985.22
2016-12-28T02:28:09.921Z,985.17
2016-12-28T02:28:39.961Z,985.2
2016-12-28T02:29:09.998Z,985.19
2016-12-28T02:29:40.036Z,985.21
2016-12-28T02:30:10.076Z,985.21
2016-12-28T02:30:40.116Z,985.21
2016-12-28T02:31:10.157Z,985.19
2016-12-28T02:31:40.195Z,985.18
2016-12-28T02:32:10.233Z,985.26
2016-12-28T02:32:40.271Z,985.21
2016-12-28T02:33:10.312Z,985.22
2016-12-28T02:33:40.352Z,985.19
2016-12-28T02:34:10.392Z,985.12
2016-12-28T02:34:40.432Z,985.17
2016-12-28T02:35:10.473Z,985.11
2016-12-28T02:35:40.509Z,985.11
2016-12-28T02:36:10.550Z,985.1
2016-12-28T02:36:40.588Z,985.05
2016-12-28T02:37:10.628Z,985.02
2016-12-28T02:37:40.667Z,985.03
2016-12-28T02:38:10.708Z,985.07
2016-12-28T02:38:40.746Z,984.97
2016-12-28T02:39:10.787Z,985
2016-12-28T02:39:40.824Z,984.92
2016-12-28T02:40:10.860Z,984.95
2016-12-28T02:40:40.902Z,984.94
2016-12-28T02:41:10.943Z,984.94
2016-12-28T02:41:40.981Z,984.89
2016-12-28T02:42:11.023Z,984.83
2016-12-28T02:42:41.061Z,984.85
2016-12-28T02:43:11.099Z,984.83
2016-12-28T02:43:41.139Z,984.83
2016-12-28T02:44:11.179Z,984.8
2016-12-28T02:44:41.218Z,984.75
2016-12-28T02:45:11.258Z,984.74
2016-12-28T02:45:41.298Z,984.74
2016-12-28T02:46:11.335Z,984.76
2016-12-28T02:46:41.377Z,984.72
2016-12-28T02:47:11.415Z,984.69
2016-12-28T02:47:41.455Z,984.71
2016-12-28T02:48:11.495Z,984.73
2016-12-28T02:48:41.534Z,984.71
2016-12-28T02:49:11.572Z,984.74
2016-12-28T02:49:41.613Z,984.76
2016-12-28T02:50:11.652Z,984.72
2016-12-28T02:50:41.691Z,984.7
2016-12-28T02:51:11.732Z,984.66
2016-12-28T02:51:41.770Z,984.7
2016-12-28T02:52:11.809Z,984.69
2016-12-28T02:52:41.849Z,984.68
2016-12-28T02:53:11.887Z,984.66
2016-12-28T02:53:41.927Z,984.67
2016-12-28T02:54:11.967Z,984.68
2016-12-28T02:54:42.007Z,984.69
2016-12-28T02:55:12.048Z,984.65
2016-12-28T02:55:42.089Z,984.71
2016-12-28T02:56:12.124Z,984.69
2016-12-28T02:56:42.164Z,984.69
2016-12-28T02:57:12.202Z,984.71
2016-12-28T02:57:42.242Z,984.66
2016-12-28T02:58:12.284Z,984.66
2016-12-28T02:58:42.321Z,984.65
2016-12-28T02:59:12.358Z,984.58
2016-12-28T02:59:42.400Z,984.65
2016-12-28T03:00:12.439Z,984.58
2016-12-28T03:00:42.476Z,984.63
2016-12-28T03:01:12.515Z,984.65
2016-12-28T03:01:42.559Z,984.7
2016-12-28T03:02:12.597Z,984.74
2016-12-28T03:02:42.635Z,984.72
2016-12-28T03:03:12.676Z,984.72
2016-12-28T03:03:42.723Z,984.74
2016-12-28T03:04:12.756Z,984.73
2016-12-28T03:04:42.795Z,984.73
2016-12-28T03:05:12.833Z,984.7
2016-12-28T03:05:42.875Z,984.72
2016-12-28T03:06:12.914Z,984.67
2016-12-28T03:06:42.952Z,984.71
2016-12-28T03:07:12.990Z,984.69
2016-12-28T03:07:43.030Z,984.68
2016-12-28T03:08:13.069Z,984.66
2016-12-28T03:08:43.107Z,984.67
2016-12-28T03:09:13.148Z,984.68
2016-12-28T03:09:43.187Z,984.73
2016-12-28T03:10:13.225Z,984.69
2016-12-28T03:10:43.264Z,984.73
2016-12-28T03:11:13.306Z,984.72
2016-12-28T03:11:43.348Z,984.73
2016-12-28T03:12:13.384Z,984.7
2016-12-28T03:12:43.426Z,984.68
2016-12-28T03:13:13.464Z,984.69
2016-12-28T03:13:43.502Z,984.65
2016-12-28T03:14:13.541Z,984.67
2016-12-28T03:14:43.583Z,984.7
2016-12-28T03:15:13.624Z,984.71
2016-12-28T03:15:43.662Z,984.75
2016-12-28T03:16:13.702Z,984.64
2016-12-28T03:16:43.740Z,984.7
2016-12-28T03:17:13.781Z,984.66
2016-12-28T03:17:43.818Z,984.67
2016-12-28T03:18:13.857Z,984.63
2016-12-28T03:18:43.903Z,984.63
2016-12-28T03:19:13.937Z,984.67
2016-12-28T03:19:43.978Z,984.66
2016-12-28T03:20:14.016Z,984.71
2016-12-28T03:20:44.053Z,984.71
2016-12-28T03:21:14.095Z,984.71
2016-12-28T03:21:44.133Z,984.75
2016-12-28T03:22:14.172Z,984.73
2016-12-28T03:22:44.211Z,984.74
2016-12-28T03:23:14.251Z,984.75
2016-12-28T03:23:44.291Z,984.76
2016-12-28T03:24:14.330Z,984.73
2016-12-28T03:24:44.370Z,984.69
2016-12-28T03:25:14.409Z,984.74
2016-12-28T03:25:44.448Z,984.78
2016-12-28T03:26:14.487Z,984.73
2016-12-28T03:26:44.525Z,984.75
2016-12-28T03:27:14.565Z,984.74
2016-12-28T03:27:44.606Z,984.74
2016-12-28T03:28:14.644Z,984.69
2016-12-28T03:28:44.684Z,984.71
2016-12-28T03:29:14.722Z,984.72
2016-12-28T03:29:44.763Z,984.77
2016-12-28T03:30:14.800Z,984.75
2016-12-28T03:30:44.840Z,984.73
2016-12-28T03:31:14.881Z,984.75
2016-12-28T03:31:44.922Z,984.72
2016-12-28T03:32:14.961Z,984.75
2016-12-28T03:32:45.001Z,984.77
2016-12-28T03:33:15.039Z,984.8
2016-12-28T03:33:45.078Z,984.78
2016-12-28T03:34:15.120Z,984.76
2016-12-28T03:34:45.159Z,984.77
2016-12-28T03:35:15.197Z,984.74
2016-12-28T03:35:45.237Z,984.76
2016-12-28T03:36:15.278Z,984.75
2016-12-28T03:36:45.315Z,984.69
2016-12-28T03:37:15.356Z,984.75
2016-12-28T03:37:45.391Z,984.69
2016-12-28T03:38:15.431Z,984.73
2016-12-28T03:38:45.472Z,984.72
2016-12-28T03:39:15.511Z,984.69
2016-12-28T03:39:45.550Z,984.7
2016-12-28T03:40:15.592Z,984.65
2016-12-28T03:40:45.629Z,984.65
2016-12-28T03:41:15.669Z,984.67
2016-12-28T03:41:45.708Z,984.67
2016-12-28T03:42:15.750Z,984.63
2016-12-28T03:42:45.790Z,984.62
2016-12-28T03:43:15.829Z,984.62
2016-12-28T03:43:45.864Z,984.6
2016-12-28T03:44:15.907Z,984.58
2016-12-28T03:44:45.948Z,984.58
2016-12-28T03:45:15.988Z,984.62
2016-12-28T03:45:46.024Z,984.56
2016-12-28T03:46:16.067Z,984.58
2016-12-28T03:46:46.104Z,984.61
2016-12-28T03:47:16.143Z,984.59
2016-12-28T03:47:46.183Z,984.57
2016-12-28T03:48:16.222Z,984.61
2016-12-28T03:48:46.262Z,984.57
2016-12-28T03:49:16.307Z,984.62
2016-12-28T03:49:46.341Z,984.57
2016-12-28T03:50:16.380Z,984.6
2016-12-28T03:50:46.419Z,984.65
2016-12-28T03:51:16.459Z,984.68
2016-12-28T03:51:46.499Z,984.69
2016-12-28T03:52:16.540Z,984.7
2016-12-28T03:52:46.581Z,984.71
2016-12-28T03:53:16.617Z,984.72
2016-12-28T03:53:46.654Z,984.77
2016-12-28T03:54:16.694Z,984.8
2016-12-28T03:54:46.735Z,984.74
2016-12-28T03:55:16.778Z,984.82
2016-12-28T03:55:46.815Z,984.8
2016-12-28T03:56:16.853Z,984.84
2016-12-28T03:56:46.893Z,984.82
2016-12-28T03:57:16.934Z,984.84
2016-12-28T03:57:46.972Z,984.83
2016-12-28T03:58:17.010Z,984.83
2016-12-28T03:58:47.052Z,984.88
2016-12-28T03:59:17.091Z,984.85
2016-12-28T03:59:47.137Z,984.88
2016-12-28T04:00:17.169Z,984.86
2016-12-28T04:00:47.209Z,984.86
2016-12-28T04:01:17.248Z,984.9
2016-12-28T04:01:47.288Z,984.94
2016-12-28T04:02:17.328Z,984.96
2016-12-28T04:02:47.369Z,984.94
2016-12-28T04:03:17.408Z,984.94
2016-12-28T04:03:47.445Z,984.95
2016-12-28T04:04:17.488Z,984.96
2016-12-28T04:04:47.525Z,984.93
2016-12-28T04:05:17.569Z,984.95
2016-12-28T04:05:47.605Z,984.92
2016-12-28T04:06:17.641Z,984.9
2016-12-28T04:06:47.684Z,984.86
2016-12-28T04:07:17.721Z,984.9
2016-12-28T04:07:47.762Z,984.86
2016-12-28T04:08:17.801Z,984.83
2016-12-28T04:08:47.839Z,984.83
2016-12-28T04:09:17.879Z,984.83
2016-12-28T04:09:47.918Z,984.81
2016-12-28T04:10:17.959Z,984.83
2016-12-28T04:10:47.998Z,984.82
2016-12-28T04:11:18.040Z,984.78
2016-12-28T04:11:48.078Z,984.84
2016-12-28T04:12:18.118Z,984.81
2016-12-28T04:12:48.156Z,984.8
2016-12-28T04:13:18.196Z,984.81
2016-12-28T04:13:48.236Z,984.81
2016-12-28T04:14:18.273Z,984.84
2016-12-28T04:14:48.313Z,984.77
2016-12-28T04:15:18.355Z,984.78
2016-12-28T04:15:48.394Z,984.77
2016-12-28T04:16:18.432Z,984.76
2016-12-28T04:16:48.472Z,984.79
2016-12-28T04:17:18.511Z,984.78
2016-12-28T04:17:48.550Z,984.77
2016-12-28T04:18:18.591Z,984.82
2016-12-28T04:18:48.628Z,984.84
2016-12-28T04:19:18.669Z,984.78
2016-12-28T04:19:48.709Z,984.85
2016-12-28T04:20:18.747Z,984.85
2016-12-28T04:20:48.787Z,984.86
2016-12-28T04:21:18.827Z,984.84
2016-12-28T04:21:48.870Z,984.84
2016-12-28T04:22:18.907Z,984.88
2016-12-28T04:22:48.946Z,984.81
2016-12-28T04:23:18.985Z,984.82
2016-12-28T04:23:49.026Z,984.82
2016-12-28T04:24:19.063Z,984.8
2016-12-28T04:24:49.105Z,984.82
2016-12-28T04:25:19.142Z,984.81
2016-12-28T04:25:49.181Z,984.83
2016-12-28T04:26:19.222Z,984.74
2016-12-28T04:26:49.261Z,984.79
2016-12-28T04:27:19.299Z,984.76
2016-12-28T04:27:49.340Z,984.76
2016-12-28T04:28:19.380Z,984.76
2016-12-28T04:28:49.419Z,984.72
2016-12-28T04:29:19.459Z,984.73
2016-12-28T04:29:49.699Z,984.71
2016-12-28T04:30:19.537Z,984.73
2016-12-28T04:30:49.576Z,984.73
2016-12-28T04:31:19.616Z,984.72
2016-12-28T04:31:49.656Z,984.69
2016-12-28T04:32:19.697Z,984.73
2016-12-28T04:32:49.734Z,984.75
2016-12-28T04:33:19.775Z,984.73
2016-12-28T04:33:49.813Z,984.76
2016-12-28T04:34:19.851Z,984.77
2016-12-28T04:34:49.892Z,984.79
2016-12-28T04:35:19.929Z,984.75
2016-12-28T04:35:49.971Z,984.76
2016-12-28T04:36:20.010Z,984.77
2016-12-28T04:36:50.050Z,984.76
2016-12-28T04:37:20.088Z,984.75
2016-12-28T04:37:50.128Z,984.76
2016-12-28T04:38:20.169Z,984.74
2016-12-28T04:38:50.206Z,984.75
2016-12-28T04:39:20.247Z,984.74
2016-12-28T04:39:50.287Z,984.7
2016-12-28T04:40:20.326Z,984.74
2016-12-28T04:40:50.364Z,984.78
2016-12-28T04:41:20.404Z,984.73
2016-12-28T04:41:50.445Z,984.72
2016-12-28T04:42:20.484Z,984.72
2016-12-28T04:42:50.522Z,984.69
2016-12-28T04:43:20.562Z,984.7
2016-12-28T04:43:50.599Z,984.72
2016-12-28T04:44:20.640Z,984.71
2016-12-28T04:44:50.681Z,984.68
2016-12-28T04:45:20.720Z,984.71
2016-12-28T04:45:50.758Z,984.73
2016-12-28T04:46:20.797Z,984.73
2016-12-28T04:46:50.852Z,984.71
2016-12-28T04:47:20.879Z,984.73
2016-12-28T04:47:50.918Z,984.72
2016-12-28T04:48:20.958Z,984.68
2016-12-28T04:48:50.997Z,984.73
2016-12-28T04:49:21.036Z,984.71
2016-12-28T04:49:51.078Z,984.7
2016-12-28T04:50:21.115Z,984.71
2016-12-28T04:50:51.159Z,984.72
2016-12-28T04:51:21.194Z,984.74
2016-12-28T04:51:51.236Z,984.74
2016-12-28T04:52:21.280Z,984.73
2016-12-28T04:52:51.315Z,984.75
2016-12-28T04:53:21.352Z,984.74
2016-12-28T04:53:51.390Z,984.78
2016-12-28T04:54:21.431Z,984.8
2016-12-28T04:54:51.470Z,984.79
2016-12-28T04:55:21.511Z,984.74
2016-12-28T04:55:51.550Z,984.76
2016-12-28T04:56:21.590Z,984.77
2016-12-28T04:56:51.628Z,984.73
2016-12-28T04:57:21.669Z,984.75
2016-12-28T04:57:51.706Z,984.72
2016-12-28T04:58:21.747Z,984.7
2016-12-28T04:58:51.788Z,984.75
2016-12-28T04:59:21.827Z,984.74
2016-12-28T04:59:51.866Z,984.75
2016-12-28T05:00:21.907Z,984.71
2016-12-28T05:00:51.944Z,984.72
2016-12-28T05:01:21.984Z,984.71
2016-12-28T05:01:52.021Z,984.74
2016-12-28T05:02:22.064Z,984.73
2016-12-28T05:02:52.102Z,984.72
2016-12-28T05:03:22.146Z,984.72
2016-12-28T05:03:52.182Z,984.69
2016-12-28T05:04:22.220Z,984.71
2016-12-28T05:04:52.259Z,984.7
2016-12-28T05:05:22.298Z,984.7
2016-12-28T05:05:52.339Z,984.7
2016-12-28T05:06:22.378Z,984.7
2016-12-28T05:06:52.417Z,984.71
2016-12-28T05:07:22.458Z,984.72
2016-12-28T05:07:52.496Z,984.67
2016-12-28T05:08:22.536Z,984.72
2016-12-28T05:08:52.576Z,984.68
2016-12-28T05:09:22.617Z,984.69
2016-12-28T05:09:52.656Z,984.69
2016-12-28T05:10:22.694Z,984.71
2016-12-28T05:10:52.735Z,984.67
2016-12-28T05:11:22.772Z,984.69
2016-12-28T05:11:52.811Z,984.73
2016-12-28T05:12:22.852Z,984.69
2016-12-28T05:12:52.892Z,984.7
2016-12-28T05:13:22.932Z,984.63
2016-12-28T05:13:52.972Z,984.69
2016-12-28T05:14:23.012Z,984.68
2016-12-28T05:14:53.050Z,984.7
2016-12-28T05:15:23.090Z,984.68
2016-12-28T05:15:53.129Z,984.69
2016-12-28T05:16:23.170Z,984.71
2016-12-28T05:16:53.207Z,984.7
2016-12-28T05:17:23.251Z,984.72
2016-12-28T05:17:53.287Z,984.73
2016-12-28T05:18:23.327Z,984.74
2016-12-28T05:18:53.367Z,984.73
2016-12-28T05:19:23.421Z,984.73
2016-12-28T05:19:53.447Z,984.73
2016-12-28T05:20:23.486Z,984.74
2016-12-28T05:20:53.526Z,984.76
2016-12-28T05:21:23.569Z,984.79
2016-12-28T05:21:53.604Z,984.79
2016-12-28T05:22:23.643Z,984.82
2016-12-28T05:22:53.684Z,984.84
2016-12-28T05:23:23.723Z,984.85
2016-12-28T05:23:53.762Z,984.88
2016-12-28T05:24:23.809Z,984.89
2016-12-28T05:24:53.842Z,984.91
2016-12-28T05:25:23.882Z,984.9
2016-12-28T05:25:53.922Z,984.85
2016-12-28T05:26:23.961Z,984.9
2016-12-28T05:26:54.001Z,984.92
2016-12-28T05:27:24.041Z,984.9
2016-12-28T05:27:54.080Z,984.94
2016-12-28T05:28:24.119Z,984.95
2016-12-28T05:28:54.157Z,984.89
2016-12-28T05:29:24.198Z,984.91
2016-12-28T05:29:54.237Z,984.93
2016-12-28T05:30:24.278Z,984.93
2016-12-28T05:30:54.317Z,984.88
2016-12-28T05:31:24.355Z,984.88
2016-12-28T05:31:54.394Z,984.9
2016-12-28T05:32:24.435Z,984.9
2016-12-28T05:32:54.474Z,984.86
2016-12-28T05:33:24.516Z,984.87
2016-12-28T05:33:54.554Z,984.88
2016-12-28T05:34:24.594Z,984.85
2016-12-28T05:34:54.634Z,984.79
2016-12-28T05:35:24.673Z,984.78
2016-12-28T05:35:54.713Z,984.89
2016-12-28T05:36:24.755Z,984.89
2016-12-28T05:36:54.792Z,984.89
2016-12-28T05:37:24.833Z,984.9
2016-12-28T05:37:54.871Z,984.92
2016-12-28T05:38:24.911Z,984.88
2016-12-28T05:38:54.953Z,984.92
2016-12-28T05:39:24.991Z,984.9
2016-12-28T05:39:55.029Z,984.89
2016-12-28T05:40:25.069Z,984.9
2016-12-28T05:40:55.108Z,984.85
2016-12-28T05:41:25.147Z,984.84
2016-12-28T05:41:55.185Z,984.81
2016-12-28T05:42:25.231Z,984.82
2016-12-28T05:42:55.266Z,984.79
2016-12-28T05:43:25.307Z,984.8
2016-12-28T05:43:55.346Z,984.8
2016-12-28T05:44:25.384Z,984.79
2016-12-28T05:44:58.968Z,984.73
2016-12-28T05:45:25.465Z,984.67
2016-12-28T05:45:55.506Z,984.7
2016-12-28T05:46:25.543Z,984.7
2016-12-28T05:46:55.581Z,984.71
2016-12-28T05:47:25.622Z,984.72
2016-12-28T05:47:55.658Z,984.67
2016-12-28T05:48:25.703Z,984.7
2016-12-28T05:48:55.738Z,984.68
2016-12-28T05:49:25.780Z,984.69
2016-12-28T05:49:55.822Z,984.67
2016-12-28T05:50:25.860Z,984.68
2016-12-28T05:50:55.900Z,984.69
2016-12-28T05:51:25.940Z,984.68
2016-12-28T05:51:55.978Z,984.67
2016-12-28T05:52:26.019Z,984.69
2016-12-28T05:52:56.063Z,984.69
2016-12-28T05:53:26.098Z,984.72
2016-12-28T05:53:56.137Z,984.73
2016-12-28T05:54:26.176Z,984.73
2016-12-28T05:54:56.216Z,984.74
2016-12-28T05:55:26.256Z,984.77
2016-12-28T05:55:56.294Z,984.74
2016-12-28T05:56:26.334Z,984.74
2016-12-28T05:56:56.376Z,984.72
2016-12-28T05:57:26.415Z,984.7
2016-12-28T05:57:56.454Z,984.7
2016-12-28T05:58:26.493Z,984.68
2016-12-28T05:58:56.533Z,984.67
2016-12-28T05:59:26.572Z,984.63
2016-12-28T05:59:56.611Z,984.64
2016-12-28T06:00:26.652Z,984.66
2016-12-28T06:00:56.691Z,984.64
2016-12-28T06:01:26.731Z,984.63
2016-12-28T06:01:56.772Z,984.65
2016-12-28T06:02:26.810Z,984.65
2016-12-28T06:02:56.852Z,984.6
2016-12-28T06:03:26.890Z,984.58
2016-12-28T06:03:56.931Z,984.58
2016-12-28T06:04:26.970Z,984.63
2016-12-28T06:04:57.010Z,984.61
2016-12-28T06:05:27.047Z,984.62
2016-12-28T06:05:57.092Z,984.65
2016-12-28T06:06:27.129Z,984.64
2016-12-28T06:06:57.167Z,984.7
2016-12-28T06:07:27.209Z,984.68
2016-12-28T06:07:57.250Z,984.71
2016-12-28T06:08:27.293Z,984.74
2016-12-28T06:08:57.324Z,984.77
2016-12-28T06:09:27.367Z,984.76
2016-12-28T06:09:57.405Z,984.8
2016-12-28T06:10:27.443Z,984.79
2016-12-28T06:10:57.483Z,984.77
2016-12-28T06:11:27.522Z,984.75
2016-12-28T06:11:57.564Z,984.76
2016-12-28T06:12:27.603Z,984.8
2016-12-28T06:12:57.640Z,984.77
2016-12-28T06:13:27.683Z,984.76
2016-12-28T06:13:57.720Z,984.77
2016-12-28T06:14:27.761Z,984.74
2016-12-28T06:14:57.800Z,984.73
2016-12-28T06:15:27.840Z,984.74
2016-12-28T06:15:57.880Z,984.74
2016-12-28T06:16:27.921Z,984.69